Time;durP1;ratioP1;P1;durP2;ratioP2;P2;SDS_P1;SDS_P2;PMS_P1;PMS_P2;Temp;Humidity;BMP_temperature;BMP_pressure;BME280_temperature;BME280_humidity;BME280_pressure;Samples;Min_cycle;Max_cycle;Signal;HPM_P1;HPM_P2
2022/07/16 00:02:59;;;;;;;3.90;1.50;;;10.90;99.90;10.20;100304;;;;576713;246;24172;-77
2022/07/16 00:05:31;;;;;;;1.13;1.00;;;10.90;99.90;10.10;100295;;;;559339;254;24215;-78
2022/07/16 00:07:57;;;;;;;2.93;1.10;;;10.80;99.90;10.10;100302;;;;576321;246;24086;-77
2022/07/16 00:10:25;;;;;;;4.23;1.63;;;10.80;99.90;10.10;100300;;;;559302;254;24176;-77
2022/07/16 00:12:52;;;;;;;3.17;1.33;;;10.80;99.90;10.10;100305;;;;574392;246;24099;-79
2022/07/16 00:15:20;;;;;;;2.23;1.20;;;10.80;99.90;10.10;100304;;;;553892;252;24167;-76
2022/07/16 00:19:15;;;;;;;3.77;1.30;;;10.80;99.90;10.10;100300;;;;565231;251;24143;-77
2022/07/16 00:20:20;;;;;;;2.10;1.43;;;10.80;99.90;10.10;100301;;;;566774;250;24119;-78
2022/07/16 00:22:45;;;;;;;6.13;1.60;;;10.80;99.90;10.10;100304;;;;549353;258;24219;-78
2022/07/16 00:25:13;;;;;;;1.63;1.00;;;10.80;99.90;10.10;100296;;;;564498;250;24143;-78
2022/07/16 00:27:41;;;;;;;2.40;1.20;;;10.80;99.90;10.10;100291;;;;549946;259;24115;-77
2022/07/16 00:30:13;;;;;;;4.27;1.90;;;10.80;99.90;10.10;100295;;;;562265;250;35287;-79
2022/07/16 00:32:36;;;;;;;4.57;1.85;;;10.80;99.90;10.10;100290;;;;541583;257;35613;-78
2022/07/16 00:35:04;;;;;;;3.35;1.92;;;10.80;99.90;10.10;100288;;;;563016;250;35250;-79
2022/07/16 00:37:32;;;;;;;4.07;1.80;;;10.80;99.90;10.10;100288;;;;558529;254;24114;-80
2022/07/16 00:40:00;;;;;;;3.07;1.70;;;10.80;99.90;10.20;100288;;;;567482;250;24155;-77
2022/07/16 00:42:28;;;;;;;3.70;1.60;;;10.90;99.90;10.20;100282;;;;550294;259;24188;-77
2022/07/16 00:44:56;;;;;;;3.70;0.93;;;10.90;99.90;10.20;100286;;;;567536;250;24085;-78
2022/07/16 00:47:24;;;;;;;3.47;1.30;;;10.90;99.90;10.20;100283;;;;550528;259;24123;-79
2022/07/16 00:49:52;;;;;;;4.17;1.20;;;10.90;99.90;10.30;100283;;;;568316;249;24107;-78
2022/07/16 00:52:20;;;;;;;3.03;1.57;;;10.90;99.90;10.30;100284;;;;561382;253;24123;-78
2022/07/16 00:54:48;;;;;;;4.10;1.13;;;11.00;99.90;10.30;100287;;;;555936;253;24101;-77
2022/07/16 00:57:18;;;;;;;5.20;1.10;;;11.00;99.90;10.30;100293;;;;551376;255;24134;-80
2022/07/16 00:59:44;;;;;;;4.80;1.40;;;11.00;99.90;10.30;100278;;;;554959;253;24129;-81
2022/07/16 01:02:11;;;;;;;7.77;1.50;;;11.10;99.90;10.30;100285;;;;563738;255;28423;-78
2022/07/16 01:04:40;;;;;;;1.10;1.10;;;11.00;99.90;10.40;100281;;;;555137;253;24135;-79
2022/07/16 01:07:11;;;;;;;3.87;1.70;;;11.00;99.90;10.40;100281;;;;555447;253;24142;-78
2022/07/16 01:09:39;;;;;;;3.50;1.10;;;11.10;99.90;10.30;100276;;;;564887;248;24145;-83
2022/07/16 01:12:04;;;;;;;4.90;1.23;;;11.00;99.90;10.40;100282;;;;573658;244;24097;-81
2022/07/16 01:14:35;;;;;;;2.53;1.07;;;11.10;99.90;10.40;100275;;;;587138;244;24079;-81
2022/07/16 01:17:00;;;;;;;2.50;1.30;;;11.10;99.90;10.40;100274;;;;577857;244;24106;-77
2022/07/16 01:19:28;;;;;;;2.60;1.60;;;11.10;99.90;10.40;100279;;;;549724;252;35435;-80
2022/07/16 01:21:56;;;;;;;8.63;1.37;;;11.10;99.90;10.50;100278;;;;577044;246;24086;-80
2022/07/16 01:24:27;;;;;;;3.87;1.43;;;11.10;99.90;10.50;100271;;;;553874;254;24118;-80
2022/07/16 01:26:51;;;;;;;3.00;1.37;;;11.20;99.90;10.50;100277;;;;576054;246;24097;-81
2022/07/16 01:29:19;;;;;;;2.20;1.30;;;11.20;99.90;10.50;100270;;;;553773;252;24154;-78
2022/07/16 01:31:47;;;;;;;4.00;1.07;;;11.20;99.90;10.60;100270;;;;576828;246;24134;-79
2022/07/16 01:34:27;;;;;;;1.37;1.27;;;11.30;99.90;10.60;100269;;;;567925;250;24103;-80
2022/07/16 01:36:58;;;;;;;3.43;1.20;;;11.20;99.90;10.60;100268;;;;577586;246;24061;-82
2022/07/16 01:39:29;;;;;;;2.50;1.20;;;11.30;99.90;10.70;100260;;;;554147;256;24123;-82
2022/07/16 01:41:54;;;;;;;3.50;1.60;;;11.30;99.90;10.70;100270;;;;577115;246;24084;-81
2022/07/16 01:44:25;;;;;;;6.03;1.23;;;11.40;99.90;10.70;100264;;;;582630;245;24103;-83
2022/07/16 01:46:49;;;;;;;5.10;1.27;;;11.40;99.90;10.70;100268;;;;576954;246;24123;-81
2022/07/16 01:49:17;;;;;;;3.27;1.80;;;11.40;99.90;10.80;100258;;;;554288;252;24125;-78
2022/07/16 01:51:45;;;;;;;4.10;1.50;;;11.50;99.90;10.80;100258;;;;567470;250;24111;-78
2022/07/16 01:54:16;;;;;;;1.77;1.30;;;11.50;99.90;10.80;100249;;;;576293;246;24070;-76
2022/07/16 01:56:41;;;;;;;1.90;1.20;;;11.50;99.90;10.90;100254;;;;556603;253;24111;-78
2022/07/16 01:59:09;;;;;;;2.43;1.10;;;11.50;99.90;10.90;100246;;;;574630;246;24119;-78
2022/07/16 02:01:37;;;;;;;4.53;1.37;;;11.60;99.90;10.90;100251;;;;555713;255;26280;-78
2022/07/16 02:04:08;;;;;;;2.77;1.60;;;11.60;99.90;11.00;100251;;;;571505;246;24143;-78
2022/07/16 02:06:33;;;;;;;6.67;1.60;;;11.60;99.90;10.90;100244;;;;554425;255;24151;-78
2022/07/16 02:09:01;;;;;;;2.63;1.10;;;11.60;99.90;10.90;100245;;;;570808;246;24094;-79
2022/07/16 02:11:29;;;;;;;2.37;1.00;;;11.60;99.90;10.90;100245;;;;555406;255;24128;-78
2022/07/16 02:13:57;;;;;;;4.07;0.90;;;11.60;99.90;10.90;100244;;;;583510;242;24062;-78
2022/07/16 02:16:24;;;;;;;2.63;1.30;;;11.60;99.90;10.80;100243;;;;555264;253;24163;-78
2022/07/16 02:18:52;;;;;;;4.53;1.53;;;11.50;99.90;10.80;100242;;;;553603;256;24131;-78
2022/07/16 02:21:24;;;;;;;2.60;1.13;;;11.50;99.90;10.80;100239;;;;573371;247;24084;-78
2022/07/16 02:23:49;;;;;;;1.47;0.93;;;11.40;99.90;10.70;100235;;;;574700;246;24077;-78
2022/07/16 02:26:20;;;;;;;5.90;1.00;;;11.40;99.90;10.70;100238;;;;578042;244;24063;-79
2022/07/16 02:28:45;;;;;;;0.97;0.87;;;11.40;99.90;10.70;100236;;;;573174;247;24140;-76
2022/07/16 02:31:13;;;;;;;3.47;0.90;;;11.40;99.90;10.70;100236;;;;570571;247;24095;-77
2022/07/16 02:33:41;;;;;;;6.87;1.50;;;11.40;99.90;10.70;100233;;;;550982;255;24168;-77
2022/07/16 02:36:08;;;;;;;2.87;1.20;;;11.40;99.90;10.70;100233;;;;561682;250;24156;-77
2022/07/16 02:38:40;;;;;;;4.47;1.33;;;11.40;99.90;10.70;100225;;;;573231;248;24082;-77
2022/07/16 02:41:04;;;;;;;3.00;1.53;;;11.40;99.90;10.70;100231;;;;569371;246;35181;-79
2022/07/16 02:43:32;;;;;;;3.13;1.20;;;11.40;99.90;10.70;100227;;;;577594;245;24060;-80
2022/07/16 02:46:00;;;;;;;1.80;0.80;;;11.40;99.90;10.70;100225;;;;573037;248;24075;-79
2022/07/16 02:48:28;;;;;;;5.80;1.17;;;11.40;99.90;10.80;100234;;;;550595;255;24163;-78
2022/07/16 02:50:56;;;;;;;1.13;0.90;;;11.40;99.90;10.80;100233;;;;553033;256;24265;-79
2022/07/16 02:53:24;;;;;;;3.47;1.17;;;11.40;99.90;10.80;100229;;;;573081;248;24059;-79
2022/07/16 02:55:52;;;;;;;6.27;1.30;;;11.40;99.90;10.80;100220;;;;550459;255;24175;-79
2022/07/16 02:58:21;;;;;;;6.70;0.97;;;11.50;99.90;10.80;100218;;;;553386;253;24166;-77
2022/07/16 03:00:48;;;;;;;2.33;1.13;;;11.50;99.90;10.80;100226;;;;566247;250;24124;-80
2022/07/16 03:03:16;;;;;;;4.17;1.30;;;11.50;99.90;10.80;100217;;;;577666;248;24090;-80
2022/07/16 03:05:47;;;;;;;1.23;0.87;;;11.50;99.90;10.80;100218;;;;557550;252;24128;-79
2022/07/16 03:08:11;;;;;;;1.50;1.10;;;11.50;99.90;10.80;100213;;;;567243;252;24145;-79
2022/07/16 03:10:39;;;;;;;2.53;0.93;;;11.50;99.90;10.80;100211;;;;571575;251;24135;-80
2022/07/16 03:13:07;;;;;;;1.80;1.30;;;11.50;99.90;10.80;100226;;;;569694;248;24117;-80
2022/07/16 03:15:35;;;;;;;2.00;1.20;;;11.50;99.90;10.80;100215;;;;557618;253;24122;-78
2022/07/16 03:18:04;;;;;;;1.40;0.80;;;11.50;99.90;10.80;100217;;;;581805;243;24108;-79
2022/07/16 03:20:32;;;;;;;3.70;1.10;;;11.50;99.90;10.90;100221;;;;559712;253;24254;-77
2022/07/16 03:23:01;;;;;;;3.60;1.47;;;11.60;99.90;10.90;100225;;;;557530;253;24136;-79
2022/07/16 03:25:29;;;;;;;0.90;0.90;;;11.60;99.90;11.00;100219;;;;581788;243;24103;-79
2022/07/16 03:27:57;;;;;;;2.80;1.10;;;11.60;99.90;11.10;100208;;;;567857;253;24158;-77
2022/07/16 03:30:25;;;;;;;4.83;1.30;;;11.80;99.90;11.20;100214;;;;557403;253;24126;-79
2022/07/16 03:32:53;;;;;;;2.37;0.87;;;11.90;99.90;11.50;100217;;;;581535;243;24110;-80
2022/07/16 03:35:21;;;;;;;5.47;1.20;;;12.10;99.90;12.30;100208;;;;559249;252;24134;-80
2022/07/16 03:40:38;;;;;;;0.83;0.80;;;13.70;99.90;14.30;100221;;;;585371;243;24063;-79
2022/07/16 03:43:04;;;;;;;1.70;0.93;;;15.60;99.90;15.10;100219;;;;559259;253;24127;-77
2022/07/16 03:45:33;;;;;;;3.17;1.10;;;16.50;99.90;16.00;100213;;;;559713;253;24194;-78
2022/07/16 03:48:01;;;;;;;2.03;1.10;;;16.50;99.90;16.80;100212;;;;562841;253;24208;-77
2022/07/16 03:50:29;;;;;;;2.17;1.00;;;17.30;99.90;17.50;100220;;;;567768;252;24135;-77
2022/07/16 03:52:56;;;;;;;3.37;0.73;;;18.10;99.90;18.10;100212;;;;556725;252;24114;-77
2022/07/16 03:55:24;;;;;;;2.63;1.00;;;18.70;99.90;18.70;100211;;;;581069;244;24154;-76
2022/07/16 03:57:52;;;;;;;4.23;1.17;;;19.40;99.90;19.40;100216;;;;557674;254;24201;-79
2022/07/16 04:00:20;;;;;;;5.07;1.00;;;20.00;99.90;20.10;100213;;;;569032;246;35100;-78
2022/07/16 04:02:48;;;;;;;1.77;0.80;;;20.70;99.90;20.50;100215;;;;559424;255;24157;-76
2022/07/16 04:05:16;;;;;;;4.13;0.90;;;21.20;99.90;21.00;100212;;;;574071;246;23077;-76
2022/07/16 04:07:44;;;;;;;2.20;0.80;;;21.70;99.90;21.70;100209;;;;556706;255;24151;-80
2022/07/16 04:10:12;;;;;;;3.37;0.73;;;22.40;99.90;21.50;100212;;;;573789;246;24044;-79
2022/07/16 04:12:40;;;;;;;1.37;0.80;;;22.50;99.90;20.80;100206;;;;575799;248;24094;-77
2022/07/16 04:15:08;;;;;;;1.77;0.73;;;22.00;99.90;21.00;100210;;;;574256;246;24087;-78
2022/07/16 04:17:37;;;;;;;0.97;0.87;;;22.70;99.90;22.00;100205;;;;577383;245;24107;-79
2022/07/16 04:20:05;;;;;;;1.43;0.90;;;23.70;99.90;23.10;100209;;;;583981;244;24091;-79
2022/07/16 04:22:33;;;;;;;1.00;0.60;;;23.60;99.90;24.30;100216;;;;564253;249;24203;-80
2022/07/16 04:25:01;;;;;;;1.00;0.90;;;24.90;96.20;24.90;100211;;;;555829;255;24204;-76
2022/07/16 04:27:29;;;;;;;3.20;1.00;;;25.70;93.00;25.20;100203;;;;556372;255;24116;-77
2022/07/16 04:29:58;;;;;;;1.40;0.73;;;25.40;89.20;24.10;100205;;;;556033;255;24123;-76
2022/07/16 04:32:27;;;;;;;1.30;0.80;;;24.40;90.00;23.10;100200;;;;555989;255;24173;-76
2022/07/16 04:34:55;;;;;;;2.47;0.70;;;23.30;91.50;22.10;100200;;;;555776;255;24158;-77
2022/07/16 04:37:25;;;;;;;1.30;0.70;;;23.30;91.50;21.20;100198;;;;555735;255;23139;-76
2022/07/16 04:39:51;;;;;;;2.40;0.80;;;22.40;92.90;20.50;100197;;;;555845;255;24113;-77
2022/07/16 04:42:22;;;;;;;2.00;0.83;;;21.60;94.40;19.80;100190;;;;555663;255;24117;-77
2022/07/16 04:44:47;;;;;;;3.10;0.73;;;20.80;96.00;19.30;100191;;;;555414;255;24142;-77
2022/07/16 04:47:15;;;;;;;0.93;0.80;;;20.10;97.60;18.80;100179;;;;555697;255;24139;-79
2022/07/16 04:49:43;;;;;;;0.67;0.60;;;19.60;99.10;18.40;100174;;;;555560;255;24123;-78
2022/07/16 04:52:11;;;;;;;3.40;0.70;;;19.10;99.90;18.10;100181;;;;555699;255;24118;-77
2022/07/16 04:54:39;;;;;;;0.53;0.43;;;18.80;99.90;18.00;100177;;;;559793;251;24152;-76
2022/07/16 04:57:10;;;;;;;1.87;0.77;;;18.50;99.90;17.70;100177;;;;565160;250;24158;-76
2022/07/16 04:59:34;;;;;;;2.37;0.80;;;18.30;99.90;17.40;100188;;;;566352;250;24117;-78
2022/07/16 05:04:49;;;;;;;1.43;0.70;;;17.50;99.90;16.90;100182;;;;566118;250;24130;-78
2022/07/16 05:07:17;;;;;;;0.80;0.70;;;17.40;99.90;16.70;100177;;;;566245;250;24076;-78
2022/07/16 05:09:45;;;;;;;1.33;0.50;;;17.30;99.90;16.60;100167;;;;574729;250;24116;-77
2022/07/16 05:12:12;;;;;;;2.53;0.70;;;17.20;99.90;16.60;100164;;;;566297;250;24075;-78
2022/07/16 05:14:40;;;;;;;1.40;0.80;;;17.10;99.90;16.50;100157;;;;566204;250;24095;-77
2022/07/16 05:17:08;;;;;;;0.50;0.50;;;17.00;99.90;16.50;100146;;;;566539;250;24102;-77
2022/07/16 05:19:36;;;;;;;0.50;0.50;;;17.00;99.90;16.50;100151;;;;566600;250;24105;-77
2022/07/16 05:22:05;;;;;;;0.37;0.37;;;17.00;99.90;16.60;100154;;;;566552;250;24101;-77
2022/07/16 05:24:32;;;;;;;1.67;0.80;;;17.10;99.90;16.80;100153;;;;566552;249;24103;-77
2022/07/16 05:27:00;;;;;;;1.00;0.40;;;17.30;99.90;16.90;100164;;;;585302;245;24112;-77
2022/07/16 05:29:29;;;;;;;1.90;0.57;;;17.40;99.90;16.90;100166;;;;575465;245;24055;-77
2022/07/16 05:31:57;;;;;;;2.90;0.70;;;17.50;99.90;16.90;100161;;;;579185;242;24047;-76
2022/07/16 05:34:25;;;;;;;0.80;0.60;;;17.40;99.90;17.10;100165;;;;553474;254;24138;-78
2022/07/16 05:36:53;;;;;;;0.40;0.30;;;17.60;99.90;17.20;100169;;;;577396;245;24047;-80
2022/07/16 05:39:21;;;;;;;2.07;0.77;;;17.60;99.90;17.20;100171;;;;554655;251;24225;-77
2022/07/16 05:41:49;;;;;;;2.57;0.80;;;17.70;99.90;17.20;100161;;;;577225;246;24099;-79
2022/07/16 05:44:17;;;;;;;0.60;0.60;;;17.70;99.90;17.50;100157;;;;554271;251;24206;-78
2022/07/16 05:46:45;;;;;;;0.80;0.80;;;17.90;99.90;17.90;100175;;;;576881;246;24157;-77
2022/07/16 05:49:13;;;;;;;1.27;0.53;;;18.30;99.90;18.30;100171;;;;554035;251;24136;-78
2022/07/16 05:51:41;;;;;;;1.53;0.70;;;18.90;99.90;18.50;100158;;;;576804;246;24091;-79
2022/07/16 05:54:09;;;;;;;2.53;0.90;;;18.90;99.90;18.70;100166;;;;554059;251;24119;-79
2022/07/16 05:56:37;;;;;;;2.17;0.57;;;19.20;99.90;18.90;100151;;;;576185;246;24099;-78
2022/07/16 05:59:05;;;;;;;1.73;0.97;;;19.50;99.90;19.30;100155;;;;553814;251;24159;-79
2022/07/16 06:01:33;;;;;;;1.33;0.63;;;19.80;99.90;19.90;100156;;;;576267;246;24117;-78
2022/07/16 06:04:01;;;;;;;1.77;1.17;;;20.30;99.90;20.20;100152;;;;553373;251;24161;-78
2022/07/16 06:06:29;;;;;;;1.90;0.70;;;20.70;99.90;20.20;100158;;;;585209;245;24079;-76
2022/07/16 06:08:57;;;;;;;0.77;0.77;;;20.80;99.90;20.20;100158;;;;553527;251;24162;-77
2022/07/16 06:11:25;;;;;;;1.07;0.70;;;20.80;99.90;20.20;100149;;;;576148;246;24152;-77
2022/07/16 06:13:53;;;;;;;1.47;1.00;;;20.80;99.90;20.20;100144;;;;553247;252;24134;-79
2022/07/16 06:16:22;;;;;;;1.23;0.90;;;20.70;99.90;20.10;100140;;;;575928;246;24059;-80
2022/07/16 06:18:51;;;;;;;1.63;1.43;;;20.70;99.90;21.10;100143;;;;553509;252;23195;-79
2022/07/16 06:21:16;;;;;;;1.93;1.00;;;21.40;99.90;22.70;100149;;;;585119;245;24171;-81
2022/07/16 06:23:44;;;;;;;2.60;0.80;;;22.80;99.90;24.70;100146;;;;553551;252;24111;-77
2022/07/16 06:26:12;;;;;;;2.20;0.67;;;24.80;97.50;27.20;100148;;;;576384;246;24072;-80
2022/07/16 06:28:40;;;;;;;1.10;0.60;;;27.20;91.70;28.90;100146;;;;565564;252;24118;-80
2022/07/16 06:31:08;;;;;;;1.83;0.57;;;28.90;80.10;31.10;100142;;;;576394;246;23066;-80
2022/07/16 06:33:36;;;;;;;0.87;0.60;;;31.10;72.60;32.70;100143;;;;553643;253;23182;-80
2022/07/16 06:36:05;;;;;;;4.68;1.00;;;32.90;61.90;32.40;100142;;;;576417;246;24106;-78
2022/07/16 06:38:32;;;;;;;2.05;0.70;;;33.10;57.10;32.80;100141;;;;553641;252;23161;-79
2022/07/16 06:41:00;;;;;;;0.90;0.70;;;33.30;56.30;33.10;100145;;;;567657;250;23107;-80
2022/07/16 06:43:28;;;;;;;0.60;0.60;;;33.80;55.00;32.80;100144;;;;576493;246;23065;-80
2022/07/16 06:45:56;;;;;;;1.10;0.60;;;33.20;52.40;32.40;100145;;;;553790;252;23141;-78
2022/07/16 06:48:24;;;;;;;1.65;0.70;;;33.20;52.30;32.40;100143;;;;577445;245;23072;-78
2022/07/16 06:50:53;;;;;;;1.17;0.60;;;33.00;53.30;32.50;100150;;;;554804;254;23123;-81
2022/07/16 06:53:20;;;;;;;2.80;0.90;;;33.00;52.00;32.40;100145;;;;577388;246;24148;-82
2022/07/16 06:55:48;;;;;;;3.28;0.70;;;33.00;52.10;32.00;100146;;;;554336;251;23138;-81
2022/07/16 06:58:16;;;;;;;3.37;0.73;;;32.60;52.50;31.70;100140;;;;576775;246;23118;-80
2022/07/16 07:00:44;;;;;;;0.93;0.80;;;32.30;53.00;31.40;100142;;;;553894;251;23132;-80
2022/07/16 07:03:12;;;;;;;1.00;0.65;;;31.90;53.20;30.70;100143;;;;576419;246;23075;-79
2022/07/16 07:05:40;;;;;;;1.85;1.10;;;31.30;53.90;29.80;100135;;;;553754;251;23140;-79
2022/07/16 07:08:08;;;;;;;1.92;0.80;;;30.60;55.10;28.80;100144;;;;576244;246;23082;-79
2022/07/16 07:10:36;;;;;;;2.13;0.90;;;28.60;57.90;27.80;100141;;;;553624;251;23175;-79
2022/07/16 07:13:04;;;;;;;1.13;0.57;;;28.60;57.80;26.80;100138;;;;576215;246;24127;-80
2022/07/16 07:15:32;;;;;;;2.37;0.83;;;27.60;59.40;25.90;100142;;;;553597;251;23144;-78
2022/07/16 07:18:00;;;;;;;3.17;0.90;;;26.70;61.50;25.20;100143;;;;576327;246;23345;-79
2022/07/16 07:20:28;;;;;;;2.63;0.83;;;25.90;63.80;24.60;100144;;;;553767;251;24172;-78
2022/07/16 07:22:57;;;;;;;1.47;0.60;;;24.70;67.40;24.20;100134;;;;576585;246;24092;-78
2022/07/16 07:25:25;;;;;;;2.30;0.63;;;24.40;68.70;23.90;100139;;;;553695;252;24130;-79
2022/07/16 07:27:53;;;;;;;1.23;0.87;;;24.30;68.60;23.70;100130;;;;576267;246;24047;-80
2022/07/16 07:30:21;;;;;;;3.50;0.87;;;24.10;69.60;23.40;100128;;;;553598;252;24104;-81
2022/07/16 07:32:49;;;;;;;1.93;0.80;;;23.80;71.00;23.20;100134;;;;576391;246;24098;-79
2022/07/16 07:35:17;;;;;;;3.20;1.00;;;23.60;72.10;23.00;100128;;;;553554;252;24158;-83
2022/07/16 07:37:45;;;;;;;0.73;0.53;;;23.40;73.70;22.60;100126;;;;576297;246;24106;-79
2022/07/16 07:40:13;;;;;;;1.00;0.87;;;23.10;75.00;22.20;100126;;;;566054;252;24121;-82
2022/07/16 07:42:41;;;;;;;1.53;0.90;;;22.70;76.40;21.90;100118;;;;576386;246;23116;-80
2022/07/16 07:45:09;;;;;;;4.10;1.00;;;22.40;77.50;21.60;100129;;;;553596;252;24121;-79
2022/07/16 07:47:37;;;;;;;3.47;1.03;;;22.10;79.00;21.20;100121;;;;576349;246;24091;-80
2022/07/16 07:50:08;;;;;;;1.67;0.70;;;21.70;80.10;20.90;100117;;;;553119;252;23126;-79
2022/07/16 07:52:36;;;;;;;1.90;0.80;;;21.40;81.40;20.60;100122;;;;567524;250;24074;-80
2022/07/16 07:55:04;;;;;;;6.03;0.97;;;21.00;82.90;20.30;100128;;;;567610;250;24116;-80
2022/07/16 07:57:31;;;;;;;3.80;0.93;;;20.80;84.40;20.00;100124;;;;576176;246;24080;-79
2022/07/16 07:59:59;;;;;;;1.33;0.90;;;20.50;86.90;19.80;100129;;;;554339;251;24165;-78
2022/07/16 08:02:27;;;;;;;1.27;0.80;;;20.20;88.20;19.50;100134;;;;577079;246;24121;-78
2022/07/16 08:04:55;;;;;;;2.30;0.80;;;19.90;89.90;19.10;100133;;;;554174;251;24137;-77
2022/07/16 08:07:23;;;;;;;0.40;0.40;;;19.60;91.00;18.80;100128;;;;576854;246;24132;-80
2022/07/16 08:09:51;;;;;;;0.70;0.70;;;19.30;92.50;18.60;100127;;;;553919;251;24119;-79
2022/07/16 08:12:19;;;;;;;3.70;1.00;;;19.00;94.00;18.40;100131;;;;577062;246;24050;-80
2022/07/16 08:14:47;;;;;;;3.93;1.20;;;18.80;96.10;18.10;100130;;;;554019;253;24156;-79
2022/07/16 08:17:15;;;;;;;4.17;0.90;;;18.60;98.90;17.90;100130;;;;576540;246;24070;-80
2022/07/16 08:19:46;;;;;;;1.60;0.87;;;18.40;99.90;17.70;100124;;;;554263;251;24162;-79
2022/07/16 08:22:11;;;;;;;1.30;0.70;;;18.20;99.90;17.60;100121;;;;576813;246;24137;-83
2022/07/16 08:27:25;;;;;;;2.00;0.77;;;18.00;99.90;17.50;100112;;;;577246;246;24075;-80
2022/07/16 08:29:53;;;;;;;2.00;0.83;;;17.90;99.90;17.40;100112;;;;554400;251;24110;-80
2022/07/16 08:32:21;;;;;;;2.43;0.90;;;17.90;99.90;17.40;100106;;;;576801;246;24084;-81
2022/07/16 08:34:50;;;;;;;1.97;0.50;;;17.90;99.90;17.50;100108;;;;553858;251;24107;-80
2022/07/16 08:37:17;;;;;;;1.20;0.93;;;17.90;99.90;17.60;100099;;;;576469;246;24056;-81
2022/07/16 08:39:45;;;;;;;0.87;0.60;;;18.10;99.90;17.70;100091;;;;553534;251;24148;-81
2022/07/16 08:42:13;;;;;;;3.03;0.60;;;18.10;99.90;17.70;100095;;;;579284;246;24097;-81
2022/07/16 08:44:44;;;;;;;0.87;0.80;;;18.20;99.90;17.60;100097;;;;565532;251;24156;-81
2022/07/16 08:47:11;;;;;;;0.77;0.70;;;18.10;99.90;17.60;100096;;;;576132;246;24132;-80
2022/07/16 08:49:39;;;;;;;1.53;0.73;;;18.10;99.90;17.60;100096;;;;553111;252;24124;-81
2022/07/16 08:52:10;;;;;;;0.80;0.80;;;18.10;99.90;17.50;100096;;;;585624;245;24116;-81
2022/07/16 08:54:38;;;;;;;0.80;0.80;;;18.10;99.90;17.50;100097;;;;577378;245;24103;-81
2022/07/16 08:57:05;;;;;;;1.60;1.07;;;18.00;99.90;17.40;100096;;;;579250;244;24116;-81
2022/07/16 08:59:33;;;;;;;5.70;0.83;;;17.90;99.90;17.40;100097;;;;565189;254;24125;-81
2022/07/16 09:02:02;;;;;;;2.37;0.87;;;17.90;99.90;17.40;100087;;;;576569;246;24051;-78
2022/07/16 09:04:31;;;;;;;1.60;0.70;;;17.90;99.90;17.40;100097;;;;554152;252;24125;-80
2022/07/16 09:06:58;;;;;;;1.77;0.90;;;17.90;99.90;17.50;100086;;;;576981;246;24092;-80
2022/07/16 09:09:26;;;;;;;1.57;1.03;;;18.00;99.90;17.50;100093;;;;554185;251;24174;-80
2022/07/16 09:11:54;;;;;;;5.40;1.10;;;18.00;99.90;17.60;100088;;;;577552;246;24046;-80
2022/07/16 09:14:22;;;;;;;3.67;1.10;;;18.10;99.90;17.60;100089;;;;554722;251;24121;-79
2022/07/16 09:16:50;;;;;;;2.17;1.20;;;18.10;99.90;17.70;100091;;;;577200;246;24059;-79
2022/07/16 09:19:22;;;;;;;3.80;0.90;;;18.20;99.90;17.70;100095;;;;578326;244;24061;-79
2022/07/16 09:22:08;;;;;;;0.60;0.60;;;18.30;99.90;17.70;100085;;;;581243;246;24128;-80
2022/07/16 09:24:42;;;;;;;1.90;0.87;;;18.20;99.90;17.60;100087;;;;554365;254;24122;-80
2022/07/16 09:27:19;;;;;;;0.90;0.73;;;18.20;99.90;17.50;100094;;;;577374;246;24093;-81
2022/07/16 09:29:50;;;;;;;1.23;0.70;;;17.90;99.90;17.40;100096;;;;558668;254;24139;-81
2022/07/16 09:32:36;;;;;;;5.17;1.00;;;17.90;99.90;17.20;100095;;;;577242;246;24103;-81
2022/07/16 09:35:10;;;;;;;2.50;0.90;;;17.80;99.90;17.00;100097;;;;558199;254;25212;-81
2022/07/16 09:37:59;;;;;;;2.83;0.80;;;17.60;99.90;16.70;100098;;;;583731;246;24095;-81
2022/07/16 09:40:35;;;;;;;2.20;0.80;;;17.30;99.90;16.40;100086;;;;554636;251;24122;-79
2022/07/16 09:43:03;;;;;;;0.70;0.60;;;17.00;99.90;16.10;100085;;;;577698;244;24105;-80
2022/07/16 09:45:30;;;;;;;5.33;0.80;;;16.70;99.90;16.10;100078;;;;586815;245;24099;-79
2022/07/16 09:47:58;;;;;;;2.63;0.90;;;16.60;99.90;16.00;100079;;;;577777;248;24156;-81
2022/07/16 09:50:26;;;;;;;3.83;0.93;;;16.50;99.90;15.90;100079;;;;577663;246;24106;-81
2022/07/16 09:52:54;;;;;;;1.13;0.63;;;16.40;99.90;15.90;100074;;;;554800;252;24150;-79
2022/07/16 09:55:25;;;;;;;2.10;0.77;;;16.40;99.90;15.90;100069;;;;580625;246;24116;-82
2022/07/16 09:57:50;;;;;;;0.70;0.70;;;16.50;99.90;15.90;100074;;;;554652;255;24193;-81
2022/07/16 10:00:18;;;;;;;1.40;0.80;;;16.50;99.90;16.00;100067;;;;572614;246;45957;-81
2022/07/16 10:02:46;;;;;;;3.17;0.80;;;16.50;99.90;16.00;100059;;;;554348;255;24128;-80
2022/07/16 10:05:14;;;;;;;4.50;0.77;;;16.60;99.90;16.10;100059;;;;567373;250;24094;-81
2022/07/16 10:07:43;;;;;;;1.10;0.70;;;16.60;99.90;16.00;100059;;;;576283;246;24103;-80
2022/07/16 10:10:13;;;;;;;0.50;0.50;;;16.60;99.90;16.00;100068;;;;565213;252;24118;-80
2022/07/16 10:12:45;;;;;;;2.43;0.90;;;16.60;99.90;15.90;100055;;;;576285;246;24059;-79
2022/07/16 10:15:13;;;;;;;1.97;0.63;;;16.50;99.90;15.90;100048;;;;565018;252;24122;-80
2022/07/16 10:17:37;;;;;;;5.43;1.27;;;16.50;99.90;15.90;100052;;;;575896;246;24142;-80
2022/07/16 10:20:11;;;;;;;2.00;1.37;;;16.50;99.90;15.90;100055;;;;560382;249;38043;-80
2022/07/16 10:22:38;;;;;;;6.45;1.20;;;16.40;99.90;15.90;100054;;;;572352;245;35039;-80
2022/07/16 10:25:14;;;;;;;2.53;1.10;;;16.40;99.90;15.80;100053;;;;578876;244;24072;-81
2022/07/16 10:27:42;;;;;;;1.17;0.80;;;16.30;99.90;15.70;100046;;;;579671;244;24066;-81
2022/07/16 10:30:23;;;;;;;2.07;1.40;;;16.20;99.90;15.70;100049;;;;554445;253;24145;-81
2022/07/16 10:33:12;;;;;;;3.00;1.33;;;16.20;99.90;15.50;100044;;;;576515;243;24078;-78
2022/07/16 10:35:45;;;;;;;1.87;0.90;;;16.00;99.90;15.40;100051;;;;563953;251;24200;-79
2022/07/16 10:38:24;;;;;;;1.43;0.70;;;16.00;99.90;15.30;100046;;;;564784;250;24136;-77
2022/07/16 10:41:10;;;;;;;1.70;1.07;;;15.90;99.90;15.10;100044;;;;573699;247;24048;-77
2022/07/16 10:43:38;;;;;;;1.50;0.80;;;15.70;99.90;15.00;100041;;;;573541;247;24086;-77
2022/07/16 10:46:06;;;;;;;0.90;0.90;;;15.50;99.90;14.90;100038;;;;573571;247;24060;-75
2022/07/16 10:48:39;;;;;;;1.90;0.83;;;15.50;99.90;14.90;100038;;;;569629;247;24092;-79
2022/07/16 10:51:22;;;;;;;5.70;0.97;;;15.50;99.90;14.90;100035;;;;563230;255;24140;-78
2022/07/16 10:54:03;;;;;;;2.00;0.90;;;15.50;99.90;15.10;100032;;;;564061;251;24114;-79
2022/07/16 10:56:39;;;;;;;2.60;1.10;;;15.60;99.90;15.20;100036;;;;572902;247;24081;-76
2022/07/16 10:59:07;;;;;;;1.43;0.93;;;15.70;99.90;15.20;100031;;;;574754;246;24089;-77
2022/07/16 11:01:37;;;;;;;1.73;1.00;;;15.80;99.90;15.20;100029;;;;577466;245;24084;-78
2022/07/16 11:04:05;;;;;;;0.73;0.73;;;15.80;99.90;15.20;100024;;;;572961;248;24100;-76
2022/07/16 11:06:37;;;;;;;1.57;1.07;;;15.80;99.90;15.20;100023;;;;570589;248;24063;-79
2022/07/16 11:09:01;;;;;;;1.83;1.07;;;15.80;99.90;15.40;100015;;;;559908;254;24115;-77
2022/07/16 11:11:35;;;;;;;1.70;1.37;;;16.00;99.90;15.50;100011;;;;550496;256;24119;-78
2022/07/16 11:14:03;;;;;;;2.77;1.17;;;16.10;99.90;15.50;100016;;;;563847;251;24091;-78
2022/07/16 11:16:31;;;;;;;2.47;1.20;;;16.20;99.90;15.50;100006;;;;581923;247;24083;-78
2022/07/16 11:19:02;;;;;;;3.53;1.40;;;16.20;99.90;15.30;99996;;;;581661;247;24083;-78
2022/07/16 11:21:33;;;;;;;1.90;0.90;;;15.80;99.90;15.10;99995;;;;581929;247;24125;-78
2022/07/16 11:23:59;;;;;;;2.47;1.40;;;15.60;99.90;14.90;99984;;;;551336;256;24125;-78
2022/07/16 11:26:30;;;;;;;4.90;1.53;;;15.50;99.90;14.80;99984;;;;559798;250;24125;-78